sensor_id;sensor_type;location;lat;lon;timestamp;temperature;humidity
8988;DHT22;4529;51.360;12.474;2024-03-23T00:55:30;11.20;99.90
8988;DHT22;4529;51.360;12.474;2024-03-23T01:00:33;11.20;99.90
8988;DHT22;4529;51.360;12.474;2024-03-23T01:05:37;11.20;99.90
8988;DHT22;4529;51.360;12.474;2024-03-23T01:10:40;11.20;99.90
8988;DHT22;4529;51.360;12.474;2024-03-23T01:15:47;11.10;99.90
8988;DHT22;4529;51.360;12.474;2024-03-23T01:20:47;11.10;99.90
8988;DHT22;4529;51.360;12.474;2024-03-23T01:25:54;11.10;99.90
8988;DHT22;4529;51.360;12.474;2024-03-23T01:30:57;11.10;99.90
8988;DHT22;4529;51.360;12.474;2024-03-23T01:36:02;11.10;99.90
8988;DHT22;4529;51.360;12.474;2024-03-23T01:41:06;11.10;99.90
8988;DHT22;4529;51.360;12.474;2024-03-23T01:46:09;11.10;99.90
8988;DHT22;4529;51.360;12.474;2024-03-23T01:51:13;11.00;99.90
8988;DHT22;4529;51.360;12.474;2024-03-23T01:56:16;11.00;99.90
8988;DHT22;4529;51.360;12.474;2024-03-23T02:01:20;10.90;99.90
8988;DHT22;4529;51.360;12.474;2024-03-23T02:06:26;10.80;99.90
8988;DHT22;4529;51.360;12.474;2024-03-23T02:11:30;10.70;99.90
8988;DHT22;4529;51.360;12.474;2024-03-23T02:16:34;10.60;99.90
8988;DHT22;4529;51.360;12.474;2024-03-23T02:21:38;10.60;99.90
8988;DHT22;4529;51.360;12.474;2024-03-23T02:26:42;10.60;99.90
8988;DHT22;4529;51.360;12.474;2024-03-23T02:31:46;10.50;99.90
8988;DHT22;4529;51.360;12.474;2024-03-23T02:36:50;10.50;99.90
8988;DHT22;4529;51.360;12.474;2024-03-23T02:41:54;10.50;99.90
8988;DHT22;4529;51.360;12.474;2024-03-23T02:46:57;10.40;99.90
8988;DHT22;4529;51.360;12.474;2024-03-23T02:52:01;10.40;99.90
8988;DHT22;4529;51.360;12.474;2024-03-23T02:57:04;10.40;99.90
8988;DHT22;4529;51.360;12.474;2024-03-23T03:02:08;10.40;99.90
8988;DHT22;4529;51.360;12.474;2024-03-23T03:07:11;10.40;99.90
8988;DHT22;4529;51.360;12.474;2024-03-23T03:12:15;10.40;99.90
8988;DHT22;4529;51.360;12.474;2024-03-23T03:17:18;10.30;99.90
8988;DHT22;4529;51.360;12.474;2024-03-23T03:22:22;10.30;99.90
8988;DHT22;4529;51.360;12.474;2024-03-23T03:27:25;10.30;99.90
8988;DHT22;4529;51.360;12.474;2024-03-23T03:32:29;10.30;99.90
8988;DHT22;4529;51.360;12.474;2024-03-23T03:37:32;10.30;99.90
8988;DHT22;4529;51.360;12.474;2024-03-23T03:42:35;10.20;99.90
8988;DHT22;4529;51.360;12.474;2024-03-23T03:47:39;10.20;99.90
8988;DHT22;4529;51.360;12.474;2024-03-23T03:52:43;10.20;99.90
8988;DHT22;4529;51.360;12.474;2024-03-23T03:57:46;10.20;99.90
8988;DHT22;4529;51.360;12.474;2024-03-23T04:02:50;10.20;99.90
8988;DHT22;4529;51.360;12.474;2024-03-23T04:07:54;10.20;99.90
8988;DHT22;4529;51.360;12.474;2024-03-23T04:12:57;10.20;99.90
8988;DHT22;4529;51.360;12.474;2024-03-23T04:18:01;10.20;99.90
8988;DHT22;4529;51.360;12.474;2024-03-23T04:23:05;10.20;99.90
8988;DHT22;4529;51.360;12.474;2024-03-23T04:28:09;10.20;99.90
8988;DHT22;4529;51.360;12.474;2024-03-23T04:33:12;10.20;99.90
8988;DHT22;4529;51.360;12.474;2024-03-23T04:38:16;10.10;99.90
8988;DHT22;4529;51.360;12.474;2024-03-23T04:43:20;10.10;99.90
8988;DHT22;4529;51.360;12.474;2024-03-23T04:48:23;10.10;99.90
8988;DHT22;4529;51.360;12.474;2024-03-23T04:53:27;10.00;99.90
8988;DHT22;4529;51.360;12.474;2024-03-23T04:58:30;10.00;99.90
8988;DHT22;4529;51.360;12.474;2024-03-23T05:03:33;10.10;99.90
8988;DHT22;4529;51.360;12.474;2024-03-23T05:08:37;10.00;99.90
8988;DHT22;4529;51.360;12.474;2024-03-23T05:13:41;10.10;99.90
8988;DHT22;4529;51.360;12.474;2024-03-23T05:18:44;10.00;99.90
8988;DHT22;4529;51.360;12.474;2024-03-23T05:23:47;10.00;99.90
8988;DHT22;4529;51.360;12.474;2024-03-23T05:28:51;10.00;99.90
8988;DHT22;4529;51.360;12.474;2024-03-23T05:33:54;10.00;99.90
8988;DHT22;4529;51.360;12.474;2024-03-23T05:38:58;10.00;99.90
8988;DHT22;4529;51.360;12.474;2024-03-23T05:44:02;9.90;99.90
8988;DHT22;4529;51.360;12.474;2024-03-23T05:49:05;10.00;99.90
8988;DHT22;4529;51.360;12.474;2024-03-23T05:54:08;9.90;99.90
8988;DHT22;4529;51.360;12.474;2024-03-23T05:59:12;10.00;99.90
8988;DHT22;4529;51.360;12.474;2024-03-23T06:04:16;9.90;99.90
8988;DHT22;4529;51.360;12.474;2024-03-23T06:09:20;9.90;99.90
8988;DHT22;4529;51.360;12.474;2024-03-23T06:14:24;9.90;99.90
8988;DHT22;4529;51.360;12.474;2024-03-23T06:19:28;9.90;99.90
8988;DHT22;4529;51.360;12.474;2024-03-23T06:24:32;9.90;99.90
8988;DHT22;4529;51.360;12.474;2024-03-23T06:29:36;9.90;99.90
8988;DHT22;4529;51.360;12.474;2024-03-23T06:34:42;9.90;99.90
8988;DHT22;4529;51.360;12.474;2024-03-23T06:39:43;9.90;99.90
8988;DHT22;4529;51.360;12.474;2024-03-23T06:44:46;9.90;99.90
8988;DHT22;4529;51.360;12.474;2024-03-23T06:49:49;9.90;99.90
8988;DHT22;4529;51.360;12.474;2024-03-23T06:54:54;9.80;99.90
8988;DHT22;4529;51.360;12.474;2024-03-23T06:59:58;9.80;99.90
8988;DHT22;4529;51.360;12.474;2024-03-23T07:05:02;9.80;99.90
8988;DHT22;4529;51.360;12.474;2024-03-23T07:10:06;9.80;99.90
8988;DHT22;4529;51.360;12.474;2024-03-23T07:15:10;9.80;99.90
8988;DHT22;4529;51.360;12.474;2024-03-23T07:20:13;9.80;99.90
8988;DHT22;4529;51.360;12.474;2024-03-23T07:25:16;9.80;99.90
8988;DHT22;4529;51.360;12.474;2024-03-23T07:30:20;9.80;99.90
8988;DHT22;4529;51.360;12.474;2024-03-23T07:35:23;9.90;99.90
8988;DHT22;4529;51.360;12.474;2024-03-23T07:40:27;9.80;99.90
8988;DHT22;4529;51.360;12.474;2024-03-23T07:45:31;9.60;99.90
8988;DHT22;4529;51.360;12.474;2024-03-23T07:50:35;9.50;99.90
8988;DHT22;4529;51.360;12.474;2024-03-23T07:55:39;9.40;99.90
8988;DHT22;4529;51.360;12.474;2024-03-23T08:00:43;9.30;99.90
8988;DHT22;4529;51.360;12.474;2024-03-23T08:05:46;9.10;99.90
8988;DHT22;4529;51.360;12.474;2024-03-23T08:10:50;8.80;99.90
8988;DHT22;4529;51.360;12.474;2024-03-23T08:16:02;8.60;99.90
8988;DHT22;4529;51.360;12.474;2024-03-23T08:21:00;8.40;99.90
8988;DHT22;4529;51.360;12.474;2024-03-23T08:26:09;8.00;99.90
8988;DHT22;4529;51.360;12.474;2024-03-23T08:31:12;7.90;99.90
8988;DHT22;4529;51.360;12.474;2024-03-23T08:36:15;7.70;99.90
8988;DHT22;4529;51.360;12.474;2024-03-23T08:41:19;7.40;99.90
8988;DHT22;4529;51.360;12.474;2024-03-23T08:46:24;7.30;99.90
8988;DHT22;4529;51.360;12.474;2024-03-23T08:51:28;7.20;99.90
8988;DHT22;4529;51.360;12.474;2024-03-23T08:56:31;7.10;99.90
8988;DHT22;4529;51.360;12.474;2024-03-23T09:01:35;7.10;99.90
8988;DHT22;4529;51.360;12.474;2024-03-23T09:06:38;7.00;99.90
8988;DHT22;4529;51.360;12.474;2024-03-23T09:11:42;6.60;99.90
8988;DHT22;4529;51.360;12.474;2024-03-23T09:16:49;6.50;99.90
8988;DHT22;4529;51.360;12.474;2024-03-23T09:21:51;6.50;99.90
8988;DHT22;4529;51.360;12.474;2024-03-23T09:26:55;6.50;99.90
8988;DHT22;4529;51.360;12.474;2024-03-23T09:31:59;6.60;99.90
8988;DHT22;4529;51.360;12.474;2024-03-23T09:37:02;6.60;99.90
8988;DHT22;4529;51.360;12.474;2024-03-23T09:42:06;6.80;99.90
8988;DHT22;4529;51.360;12.474;2024-03-23T09:47:09;7.00;99.90
8988;DHT22;4529;51.360;12.474;2024-03-23T09:52:13;7.10;99.90
8988;DHT22;4529;51.360;12.474;2024-03-23T09:57:17;7.20;99.90
8988;DHT22;4529;51.360;12.474;2024-03-23T10:02:21;7.20;99.90
8988;DHT22;4529;51.360;12.474;2024-03-23T10:07:25;7.20;99.90
8988;DHT22;4529;51.360;12.474;2024-03-23T10:12:28;7.20;99.90
8988;DHT22;4529;51.360;12.474;2024-03-23T10:17:32;7.10;99.90
8988;DHT22;4529;51.360;12.474;2024-03-23T10:22:36;7.20;99.90
8988;DHT22;4529;51.360;12.474;2024-03-23T10:27:39;7.20;99.90
8988;DHT22;4529;51.360;12.474;2024-03-23T10:32:42;7.40;99.90
8988;DHT22;4529;51.360;12.474;2024-03-23T10:37:46;7.60;99.90
8988;DHT22;4529;51.360;12.474;2024-03-23T10:42:49;7.60;99.90
8988;DHT22;4529;51.360;12.474;2024-03-23T10:47:53;7.70;99.90
8988;DHT22;4529;51.360;12.474;2024-03-23T10:52:56;7.70;99.90
8988;DHT22;4529;51.360;12.474;2024-03-23T10:58:00;7.80;99.90
8988;DHT22;4529;51.360;12.474;2024-03-23T11:03:32;7.80;99.90
8988;DHT22;4529;51.360;12.474;2024-03-23T11:08:38;7.80;99.90
8988;DHT22;4529;51.360;12.474;2024-03-23T11:13:42;8.00;99.90
8988;DHT22;4529;51.360;12.474;2024-03-23T11:18:45;8.00;99.90
8988;DHT22;4529;51.360;12.474;2024-03-23T11:23:49;8.10;99.90
8988;DHT22;4529;51.360;12.474;2024-03-23T11:29:08;8.20;99.90
8988;DHT22;4529;51.360;12.474;2024-03-23T11:34:05;8.30;99.90
8988;DHT22;4529;51.360;12.474;2024-03-23T11:39:00;8.40;99.90
8988;DHT22;4529;51.360;12.474;2024-03-23T11:44:18;8.70;99.90
8988;DHT22;4529;51.360;12.474;2024-03-23T11:49:25;8.70;99.90
8988;DHT22;4529;51.360;12.474;2024-03-23T11:54:27;8.80;99.90
8988;DHT22;4529;51.360;12.474;2024-03-23T11:59:40;8.90;99.90
8988;DHT22;4529;51.360;12.474;2024-03-23T12:04:43;9.10;99.90
8988;DHT22;4529;51.360;12.474;2024-03-23T12:09:47;9.20;99.90
8988;DHT22;4529;51.360;12.474;2024-03-23T12:15:05;9.30;99.90
8988;DHT22;4529;51.360;12.474;2024-03-23T12:20:05;9.50;99.90
8988;DHT22;4529;51.360;12.474;2024-03-23T12:25:09;9.70;99.90
8988;DHT22;4529;51.360;12.474;2024-03-23T12:30:12;9.70;99.90
8988;DHT22;4529;51.360;12.474;2024-03-23T12:35:16;10.00;99.90
8988;DHT22;4529;51.360;12.474;2024-03-23T12:40:20;10.10;99.90
8988;DHT22;4529;51.360;12.474;2024-03-23T12:45:25;10.20;99.90
8988;DHT22;4529;51.360;12.474;2024-03-23T12:50:28;10.20;99.90
8988;DHT22;4529;51.360;12.474;2024-03-23T12:55:32;10.30;99.90
8988;DHT22;4529;51.360;12.474;2024-03-23T13:00:35;10.40;99.90
8988;DHT22;4529;51.360;12.474;2024-03-23T13:05:38;10.50;99.90
8988;DHT22;4529;51.360;12.474;2024-03-23T13:10:42;10.60;99.90
8988;DHT22;4529;51.360;12.474;2024-03-23T13:15:51;10.70;99.90
8988;DHT22;4529;51.360;12.474;2024-03-23T13:20:55;10.70;99.90
8988;DHT22;4529;51.360;12.474;2024-03-23T13:25:58;10.70;99.90
8988;DHT22;4529;51.360;12.474;2024-03-23T13:31:02;10.80;99.90
8988;DHT22;4529;51.360;12.474;2024-03-23T13:36:05;10.90;99.90
8988;DHT22;4529;51.360;12.474;2024-03-23T13:41:08;11.00;99.90
8988;DHT22;4529;51.360;12.474;2024-03-23T13:46:12;11.20;99.90
8988;DHT22;4529;51.360;12.474;2024-03-23T13:51:15;11.30;99.90
8988;DHT22;4529;51.360;12.474;2024-03-23T13:56:19;11.40;99.90
8988;DHT22;4529;51.360;12.474;2024-03-23T14:01:22;11.50;99.90
8988;DHT22;4529;51.360;12.474;2024-03-23T14:06:26;11.50;99.90
8988;DHT22;4529;51.360;12.474;2024-03-23T14:11:30;11.40;99.90
8988;DHT22;4529;51.360;12.474;2024-03-23T14:16:34;11.00;99.90
8988;DHT22;4529;51.360;12.474;2024-03-23T14:21:38;10.60;99.90
8988;DHT22;4529;51.360;12.474;2024-03-23T14:26:42;10.50;99.90
8988;DHT22;4529;51.360;12.474;2024-03-23T14:31:45;10.50;99.90
8988;DHT22;4529;51.360;12.474;2024-03-23T14:36:48;10.50;99.90
8988;DHT22;4529;51.360;12.474;2024-03-23T14:41:52;10.50;99.90
8988;DHT22;4529;51.360;12.474;2024-03-23T14:46:55;10.50;99.90
8988;DHT22;4529;51.360;12.474;2024-03-23T14:51:59;10.10;99.90
8988;DHT22;4529;51.360;12.474;2024-03-23T14:57:02;9.80;99.90
8988;DHT22;4529;51.360;12.474;2024-03-23T15:02:09;9.40;99.90
8988;DHT22;4529;51.360;12.474;2024-03-23T15:07:13;9.40;99.90
8988;DHT22;4529;51.360;12.474;2024-03-23T15:12:17;8.70;99.90
8988;DHT22;4529;51.360;12.474;2024-03-23T15:17:21;8.40;99.90
8988;DHT22;4529;51.360;12.474;2024-03-23T15:22:24;8.40;99.90
8988;DHT22;4529;51.360;12.474;2024-03-23T15:27:28;8.20;99.90
8988;DHT22;4529;51.360;12.474;2024-03-23T15:32:31;8.10;99.90
8988;DHT22;4529;51.360;12.474;2024-03-23T15:37:35;8.10;99.90
8988;DHT22;4529;51.360;12.474;2024-03-23T15:42:40;8.10;99.90
8988;DHT22;4529;51.360;12.474;2024-03-23T15:47:44;8.20;99.90
8988;DHT22;4529;51.360;12.474;2024-03-23T15:52:47;8.10;99.90
8988;DHT22;4529;51.360;12.474;2024-03-23T15:57:51;8.30;99.90
8988;DHT22;4529;51.360;12.474;2024-03-23T16:02:54;8.30;99.90
8988;DHT22;4529;51.360;12.474;2024-03-23T16:07:58;8.60;99.90
8988;DHT22;4529;51.360;12.474;2024-03-23T16:13:02;8.60;99.90
8988;DHT22;4529;51.360;12.474;2024-03-23T16:18:05;8.70;99.90
8988;DHT22;4529;51.360;12.474;2024-03-23T16:23:09;8.70;99.90
8988;DHT22;4529;51.360;12.474;2024-03-23T16:28:13;8.70;99.90
8988;DHT22;4529;51.360;12.474;2024-03-23T16:33:16;8.80;99.90
8988;DHT22;4529;51.360;12.474;2024-03-23T16:38:20;8.90;99.90
8988;DHT22;4529;51.360;12.474;2024-03-23T16:43:24;9.00;99.90
8988;DHT22;4529;51.360;12.474;2024-03-23T16:48:28;9.00;99.90
8988;DHT22;4529;51.360;12.474;2024-03-23T16:53:31;9.00;99.90
8988;DHT22;4529;51.360;12.474;2024-03-23T16:58:35;9.00;99.90
8988;DHT22;4529;51.360;12.474;2024-03-23T17:03:38;9.00;99.90
8988;DHT22;4529;51.360;12.474;2024-03-23T17:08:41;9.10;99.90
8988;DHT22;4529;51.360;12.474;2024-03-23T17:13:45;9.10;99.90
8988;DHT22;4529;51.360;12.474;2024-03-23T17:18:49;9.10;99.90
8988;DHT22;4529;51.360;12.474;2024-03-23T17:23:53;9.10;99.90
8988;DHT22;4529;51.360;12.474;2024-03-23T17:28:56;9.00;99.90
8988;DHT22;4529;51.360;12.474;2024-03-23T17:34:00;9.00;99.90
8988;DHT22;4529;51.360;12.474;2024-03-23T17:39:04;8.80;99.90
8988;DHT22;4529;51.360;12.474;2024-03-23T17:44:07;8.80;99.90
8988;DHT22;4529;51.360;12.474;2024-03-23T17:49:11;8.70;99.90
8988;DHT22;4529;51.360;12.474;2024-03-23T17:54:14;8.60;99.90
8988;DHT22;4529;51.360;12.474;2024-03-23T17:59:20;8.60;99.90
8988;DHT22;4529;51.360;12.474;2024-03-23T18:04:21;8.40;99.90
8988;DHT22;4529;51.360;12.474;2024-03-23T18:09:25;8.30;99.90
8988;DHT22;4529;51.360;12.474;2024-03-23T18:14:28;8.30;99.90
8988;DHT22;4529;51.360;12.474;2024-03-23T18:19:32;8.10;99.90
8988;DHT22;4529;51.360;12.474;2024-03-23T18:24:36;8.10;99.90
8988;DHT22;4529;51.360;12.474;2024-03-23T18:29:40;8.10;99.90
8988;DHT22;4529;51.360;12.474;2024-03-23T18:34:44;8.10;99.90
8988;DHT22;4529;51.360;12.474;2024-03-23T18:39:48;8.00;99.90
8988;DHT22;4529;51.360;12.474;2024-03-23T18:44:51;7.90;99.90
8988;DHT22;4529;51.360;12.474;2024-03-23T18:49:55;7.80;99.90
8988;DHT22;4529;51.360;12.474;2024-03-23T18:54:59;7.80;99.90
8988;DHT22;4529;51.360;12.474;2024-03-23T19:00:03;7.80;99.90
8988;DHT22;4529;51.360;12.474;2024-03-23T19:05:07;7.70;99.90
8988;DHT22;4529;51.360;12.474;2024-03-23T19:10:10;7.70;99.90
8988;DHT22;4529;51.360;12.474;2024-03-23T19:15:15;7.60;99.90
8988;DHT22;4529;51.360;12.474;2024-03-23T19:20:18;7.60;99.90
8988;DHT22;4529;51.360;12.474;2024-03-23T19:25:22;7.60;99.90
8988;DHT22;4529;51.360;12.474;2024-03-23T19:30:25;7.50;99.90
8988;DHT22;4529;51.360;12.474;2024-03-23T19:35:29;7.30;99.90
8988;DHT22;4529;51.360;12.474;2024-03-23T19:40:33;7.30;99.90
8988;DHT22;4529;51.360;12.474;2024-03-23T19:45:37;7.30;99.90
8988;DHT22;4529;51.360;12.474;2024-03-23T19:50:40;7.40;99.90
8988;DHT22;4529;51.360;12.474;2024-03-23T19:55:44;7.50;99.90
8988;DHT22;4529;51.360;12.474;2024-03-23T20:00:48;7.60;99.90
8988;DHT22;4529;51.360;12.474;2024-03-23T20:06:01;7.60;99.90
8988;DHT22;4529;51.360;12.474;2024-03-23T20:11:04;7.60;99.90
8988;DHT22;4529;51.360;12.474;2024-03-23T20:16:08;7.60;99.90
8988;DHT22;4529;51.360;12.474;2024-03-23T20:21:11;7.60;99.90
8988;DHT22;4529;51.360;12.474;2024-03-23T20:26:15;7.70;99.90
8988;DHT22;4529;51.360;12.474;2024-03-23T20:31:19;7.70;99.90
8988;DHT22;4529;51.360;12.474;2024-03-23T20:36:22;7.70;99.90
8988;DHT22;4529;51.360;12.474;2024-03-23T20:41:26;7.70;99.90
8988;DHT22;4529;51.360;12.474;2024-03-23T20:46:29;7.70;99.90
8988;DHT22;4529;51.360;12.474;2024-03-23T20:51:33;7.70;99.90
8988;DHT22;4529;51.360;12.474;2024-03-23T20:56:37;7.70;99.90
8988;DHT22;4529;51.360;12.474;2024-03-23T21:01:41;7.70;99.90
8988;DHT22;4529;51.360;12.474;2024-03-23T21:06:44;7.70;99.90
8988;DHT22;4529;51.360;12.474;2024-03-23T21:11:48;7.80;99.90
8988;DHT22;4529;51.360;12.474;2024-03-23T21:16:52;7.50;99.90
8988;DHT22;4529;51.360;12.474;2024-03-23T21:21:56;7.40;99.90
8988;DHT22;4529;51.360;12.474;2024-03-23T21:27:00;7.20;99.90
8988;DHT22;4529;51.360;12.474;2024-03-23T21:32:05;7.10;99.90
8988;DHT22;4529;51.360;12.474;2024-03-23T21:37:08;7.00;99.90
8988;DHT22;4529;51.360;12.474;2024-03-23T21:42:11;7.00;99.90
8988;DHT22;4529;51.360;12.474;2024-03-23T21:47:15;6.80;99.90
8988;DHT22;4529;51.360;12.474;2024-03-23T21:52:18;6.70;99.90
8988;DHT22;4529;51.360;12.474;2024-03-23T21:57:22;6.50;99.90
8988;DHT22;4529;51.360;12.474;2024-03-23T22:02:26;6.50;99.90
8988;DHT22;4529;51.360;12.474;2024-03-23T22:07:30;6.50;99.90
8988;DHT22;4529;51.360;12.474;2024-03-23T22:12:33;6.40;99.90
8988;DHT22;4529;51.360;12.474;2024-03-23T22:17:37;6.40;99.90
8988;DHT22;4529;51.360;12.474;2024-03-23T22:22:41;6.30;99.90
8988;DHT22;4529;51.360;12.474;2024-03-23T22:27:44;6.30;99.90
8988;DHT22;4529;51.360;12.474;2024-03-23T22:32:48;6.20;99.90
8988;DHT22;4529;51.360;12.474;2024-03-23T22:37:51;6.10;99.90
8988;DHT22;4529;51.360;12.474;2024-03-23T22:42:55;5.90;99.90
8988;DHT22;4529;51.360;12.474;2024-03-23T22:48:00;5.80;99.90
8988;DHT22;4529;51.360;12.474;2024-03-23T22:53:03;5.80;99.90
8988;DHT22;4529;51.360;12.474;2024-03-23T22:58:06;5.70;99.90
8988;DHT22;4529;51.360;12.474;2024-03-23T23:03:11;5.60;99.90
8988;DHT22;4529;51.360;12.474;2024-03-23T23:08:14;5.60;99.90
8988;DHT22;4529;51.360;12.474;2024-03-23T23:13:18;5.50;99.90
8988;DHT22;4529;51.360;12.474;2024-03-23T23:18:22;5.50;99.90
8988;DHT22;4529;51.360;12.474;2024-03-23T23:23:25;5.60;99.90
8988;DHT22;4529;51.360;12.474;2024-03-23T23:28:28;5.60;99.90
8988;DHT22;4529;51.360;12.474;2024-03-23T23:33:33;5.60;99.90
8988;DHT22;4529;51.360;12.474;2024-03-23T23:38:37;5.60;99.90
8988;DHT22;4529;51.360;12.474;2024-03-23T23:43:40;5.60;99.90
8988;DHT22;4529;51.360;12.474;2024-03-23T23:48:44;5.70;99.90
8988;DHT22;4529;51.360;12.474;2024-03-23T23:53:47;5.70;99.90
8988;DHT22;4529;51.360;12.474;2024-03-23T23:58:51;5.70;99.90
